Time;durP1;ratioP1;P1;durP2;ratioP2;P2;SDS_P1;SDS_P2;PMS_P1;PMS_P2;Temp;Humidity;BMP_temperature;BMP_pressure;BME280_temperature;BME280_humidity;BME280_pressure;Samples;Min_cycle;Max_cycle;Signal;HPM_P1;HPM_P2
2023/06/23 00:00:45;;;;;;;9.57;5.23;;;;;;;;;;6219233;28;20060;-77
2023/06/23 00:03:48;;;;;;;8.25;5.00;;;;;;;;;;6219454;28;20068;-77
2023/06/23 00:06:49;;;;;;;;;;;;;;;;;;6220685;28;20054;-78
2023/06/23 00:09:51;;;;;;;7.95;4.45;;;;;;;;;;6219838;28;20768;-78
2023/06/23 00:12:53;;;;;;;9.38;4.80;;;;;;;;;;6215590;28;20137;-79
2023/06/23 00:15:54;;;;;;;7.47;5.00;;;;;;;;;;6216661;28;20160;-78
2023/06/23 00:18:57;;;;;;;10.13;5.00;;;;;;;;;;6217189;28;20278;-78
2023/06/23 00:22:00;;;;;;;7.90;4.80;;;;;;;;;;6217591;28;20050;-77
2023/06/23 00:25:02;;;;;;;7.67;4.30;;;;;;;;;;6216775;28;20053;-77
2023/06/23 00:28:04;;;;;;;9.95;4.72;;;;;;;;;;6217876;28;20697;-78
2023/06/23 00:31:06;;;;;;;7.97;4.85;;;;;;;;;;6216458;28;20062;-77
2023/06/23 00:34:09;;;;;;;10.27;5.18;;;;;;;;;;6218017;28;20042;-78
2023/06/23 00:37:11;;;;;;;12.60;5.53;;;;;;;;;;6213591;28;20352;-77
2023/06/23 00:40:15;;;;;;;7.90;5.20;;;;;;;;;;6217145;28;20061;-77
2023/06/23 00:43:17;;;;;;;12.32;5.85;;;;;;;;;;6217180;28;20057;-77
2023/06/23 00:46:21;;;;;;;9.57;5.25;;;;;;;;;;6216715;28;20049;-77
2023/06/23 00:49:24;;;;;;;12.15;5.50;;;;;;;;;;6216922;28;20049;-77
2023/06/23 00:52:26;;;;;;;8.48;5.30;;;;;;;;;;6217174;28;20238;-77
2023/06/23 00:55:28;;;;;;;12.18;5.22;;;;;;;;;;6216464;28;20060;-77
2023/06/23 00:58:34;;;;;;;9.88;5.25;;;;;;;;;;6215819;28;20056;-76
2023/06/23 01:01:36;;;;;;;8.30;4.45;;;;;;;;;;6212171;28;20115;-78
2023/06/23 01:04:39;;;;;;;11.98;5.05;;;;;;;;;;6215693;28;20058;-77
2023/06/23 01:07:44;;;;;;;9.13;4.72;;;;;;;;;;6218951;28;20050;-77
2023/06/23 01:10:50;;;;;;;10.57;4.95;;;;;;;;;;6215171;28;20090;-77
2023/06/23 01:13:56;;;;;;;10.88;5.15;;;;;;;;;;6215456;28;20338;-78
2023/06/23 01:17:01;;;;;;;11.05;4.72;;;;;;;;;;6221043;28;20061;-77
2023/06/23 01:20:20;;;;;;;11.27;4.88;;;;;;;;;;6221261;28;20116;-78
2023/06/23 01:23:45;;;;;;;12.80;4.38;;;;;;;;;;6220445;28;20054;-77
2023/06/23 01:27:21;;;;;;;11.82;4.90;;;;;;;;;;6219460;28;20050;-77
2023/06/23 01:30:26;;;;;;;9.45;4.20;;;;;;;;;;6219535;28;20061;-78
2023/06/23 01:33:37;;;;;;;11.32;4.55;;;;;;;;;;6220221;28;20393;-77
2023/06/23 01:36:41;;;;;;;14.05;4.25;;;;;;;;;;6218653;28;20081;-77
2023/06/23 01:39:46;;;;;;;7.97;4.35;;;;;;;;;;6219307;28;20069;-74
2023/06/23 01:42:51;;;;;;;10.43;4.00;;;;;;;;;;6220914;28;20068;-77
2023/06/23 01:45:55;;;;;;;11.18;4.28;;;;;;;;;;6220592;28;20139;-77
2023/06/23 01:48:59;;;;;;;11.20;4.45;;;;;;;;;;6219457;28;20057;-77
2023/06/23 01:52:04;;;;;;;10.60;4.32;;;;;;;;;;6217615;28;20057;-76
2023/06/23 01:55:07;;;;;;;11.88;3.78;;;;;;;;;;6219560;28;20085;-77
2023/06/23 01:58:09;;;;;;;13.43;4.35;;;;;;;;;;6220550;28;20057;-77
2023/06/23 02:01:13;;;;;;;10.90;4.40;;;;;;;;;;6220766;28;20049;-77
2023/06/23 02:04:16;;;;;;;10.05;4.50;;;;;;;;;;6219362;28;20510;-78
2023/06/23 02:07:19;;;;;;;11.98;4.40;;;;;;;;;;6222110;28;21235;-77
2023/06/23 02:10:24;;;;;;;11.82;4.85;;;;;;;;;;6218223;28;20095;-77
2023/06/23 02:13:27;;;;;;;9.30;3.95;;;;;;;;;;6221409;28;20061;-77
2023/06/23 02:16:32;;;;;;;8.93;4.05;;;;;;;;;;6220141;28;20046;-78
2023/06/23 02:19:34;;;;;;;10.20;4.25;;;;;;;;;;6218574;28;20072;-77
2023/06/23 02:22:37;;;;;;;11.20;5.33;;;;;;;;;;6220054;28;20219;-78
2023/06/23 02:25:39;;;;;;;10.77;4.22;;;;;;;;;;6218531;28;20049;-76
2023/06/23 02:28:41;;;;;;;11.00;4.88;;;;;;;;;;6213772;28;20108;-77
2023/06/23 02:31:44;;;;;;;9.07;4.32;;;;;;;;;;6219088;28;20054;-77
2023/06/23 02:34:46;;;;;;;8.80;4.13;;;;;;;;;;6218189;28;20116;-76
2023/06/23 02:37:50;;;;;;;9.48;4.90;;;;;;;;;;6216776;28;20396;-77
2023/06/23 02:40:53;;;;;;;7.85;4.70;;;;;;;;;;6219806;28;20055;-77
2023/06/23 02:43:58;;;;;;;9.68;4.70;;;;;;;;;;6217890;28;20054;-77
2023/06/23 02:47:03;;;;;;;11.52;3.95;;;;;;;;;;6220387;28;20054;-78
2023/06/23 02:50:07;;;;;;;7.70;4.32;;;;;;;;;;6219338;28;20050;-78
2023/06/23 02:53:11;;;;;;;12.23;4.80;;;;;;;;;;6220757;28;20058;-78
2023/06/23 02:56:16;;;;;;;10.10;5.03;;;;;;;;;;6217573;28;20054;-78
2023/06/23 02:59:21;;;;;;;13.23;5.55;;;;;;;;;;6218742;28;20144;-78
2023/06/23 03:02:24;;;;;;;11.68;5.25;;;;;;;;;;6215675;28;20557;-78
2023/06/23 03:05:27;;;;;;;9.82;5.03;;;;;;;;;;6218220;28;20072;-78
2023/06/23 03:08:29;;;;;;;8.90;5.23;;;;;;;;;;6218612;28;20405;-77
2023/06/23 03:11:31;;;;;;;16.77;7.53;;;;;;;;;;6216927;28;20045;-77
2023/06/23 03:14:33;;;;;;;11.75;5.38;;;;;;;;;;6215491;28;20056;-78
2023/06/23 03:17:38;;;;;;;10.07;5.10;;;;;;;;;;6216898;28;20330;-78
2023/06/23 03:20:45;;;;;;;9.45;5.60;;;;;;;;;;6216528;28;20050;-79
2023/06/23 03:23:50;;;;;;;12.98;5.47;;;;;;;;;;6216843;28;20073;-77
2023/06/23 03:26:57;;;;;;;10.50;5.45;;;;;;;;;;6219957;28;20141;-77
2023/06/23 03:30:02;;;;;;;11.50;5.93;;;;;;;;;;6217138;28;20054;-78
2023/06/23 03:33:10;;;;;;;12.48;5.47;;;;;;;;;;6215393;28;20122;-79
2023/06/23 03:36:18;;;;;;;7.25;5.25;;;;;;;;;;6214478;28;20053;-78
2023/06/23 03:39:22;;;;;;;9.45;5.07;;;;;;;;;;6216573;28;20395;-78
2023/06/23 03:42:24;;;;;;;7.93;4.75;;;;;;;;;;6216450;28;20053;-77
2023/06/23 03:45:26;;;;;;;7.35;4.55;;;;;;;;;;6217371;28;20096;-78
2023/06/23 03:48:31;;;;;;;9.85;5.20;;;;;;;;;;6214428;28;20049;-78
2023/06/23 03:51:34;;;;;;;9.20;5.10;;;;;;;;;;6212038;28;20046;-78
2023/06/23 03:54:36;;;;;;;10.90;4.63;;;;;;;;;;6216087;28;20113;-78
2023/06/23 03:57:39;;;;;;;8.30;5.05;;;;;;;;;;6216751;28;20112;-78
2023/06/23 04:00:42;;;;;;;6.68;4.68;;;;;;;;;;6217636;28;20050;-77
2023/06/23 04:03:45;;;;;;;11.70;5.10;;;;;;;;;;6215132;28;20046;-78
2023/06/23 04:06:48;;;;;;;5.50;4.38;;;;;;;;;;6214373;28;20057;-79
2023/06/23 04:09:50;;;;;;;;;;;;;;;;;;6216011;28;20297;-78
2023/06/23 04:12:52;;;;;;;7.70;4.47;;;;;;;;;;6215769;28;19925;-78
2023/06/23 04:15:54;;;;;;;8.52;4.78;;;;;;;;;;6217231;28;20061;-78
2023/06/23 04:18:59;;;;;;;9.38;4.63;;;;;;;;;;6218333;28;20104;-79
2023/06/23 04:22:02;;;;;;;6.60;4.47;;;;;;;;;;6211619;28;20362;-78
2023/06/23 04:25:05;;;;;;;5.22;4.40;;;;;;;;;;6214021;28;20115;-79
2023/06/23 04:28:09;;;;;;;11.93;4.40;;;;;;;;;;6216368;28;20341;-78
2023/06/23 04:31:11;;;;;;;9.77;4.40;;;;;;;;;;6216271;28;20064;-77
2023/06/23 04:34:14;;;;;;;10.80;4.63;;;;;;;;;;6215652;28;20049;-76
2023/06/23 04:37:18;;;;;;;;;;;;;;;;;;6217428;28;20054;-78
2023/06/23 04:40:24;;;;;;;8.68;4.32;;;;;;;;;;6215369;28;19925;-75
2023/06/23 04:43:27;;;;;;;5.55;4.22;;;;;;;;;;6215321;28;20057;-76
2023/06/23 04:46:31;;;;;;;9.07;4.55;;;;;;;;;;6215132;28;20061;-75
2023/06/23 04:49:35;;;;;;;6.57;4.25;;;;;;;;;;6214744;28;20058;-76
2023/06/23 04:52:38;;;;;;;8.13;5.25;;;;;;;;;;6215003;28;20105;-76
2023/06/23 04:55:40;;;;;;;8.05;4.90;;;;;;;;;;6211381;28;20050;-76
2023/06/23 04:58:42;;;;;;;10.68;5.25;;;;;;;;;;6215240;28;20064;-77
2023/06/23 05:01:44;;;;;;;8.50;5.33;;;;;;;;;;6215260;28;20057;-76
2023/06/23 05:04:48;;;;;;;8.70;5.30;;;;;;;;;;6212651;28;20073;-76
2023/06/23 05:07:51;;;;;;;9.23;4.57;;;;;;;;;;6216635;28;20053;-76
2023/06/23 05:10:53;;;;;;;10.68;5.22;;;;;;;;;;6214657;28;20073;-75
2023/06/23 05:13:59;;;;;;;8.50;5.23;;;;;;;;;;6213400;28;20064;-76
2023/06/23 05:17:02;;;;;;;8.70;5.05;;;;;;;;;;6215656;28;20093;-76
2023/06/23 05:20:07;;;;;;;8.10;5.35;;;;;;;;;;6216718;28;20096;-77
2023/06/23 05:23:10;;;;;;;12.60;5.82;;;;;;;;;;6213850;28;20346;-76
2023/06/23 05:26:13;;;;;;;13.68;6.18;;;;;;;;;;6215710;28;20060;-75
2023/06/23 05:29:17;;;;;;;12.18;5.43;;;;;;;;;;6214673;28;20064;-75
2023/06/23 05:32:21;;;;;;;11.05;5.00;;;;;;;;;;6216827;28;20053;-75
2023/06/23 05:35:24;;;;;;;14.60;5.05;;;;;;;;;;6213737;28;20057;-75
2023/06/23 05:38:27;;;;;;;14.60;6.43;;;;;;;;;;6213628;28;20269;-76
2023/06/23 05:41:29;;;;;;;10.82;6.55;;;;;;;;;;6211572;28;20361;-76
2023/06/23 05:44:31;;;;;;;12.82;6.57;;;;;;;;;;6215530;28;20045;-76
2023/06/23 05:47:37;;;;;;;14.40;6.07;;;;;;;;;;6213745;28;20104;-75
2023/06/23 05:50:41;;;;;;;13.70;6.43;;;;;;;;;;6212955;28;20339;-75
2023/06/23 05:53:44;;;;;;;12.98;6.25;;;;;;;;;;6211398;28;20065;-75
2023/06/23 05:56:50;;;;;;;15.52;6.65;;;;;;;;;;6215411;28;20065;-75
2023/06/23 05:59:58;;;;;;;14.65;6.38;;;;;;;;;;6214012;28;20053;-76
2023/06/23 06:03:02;;;;;;;17.40;6.55;;;;;;;;;;6217431;28;20317;-76
2023/06/23 06:06:07;;;;;;;16.10;6.25;;;;;;;;;;6215906;28;20211;-78
2023/06/23 06:09:11;;;;;;;13.05;6.97;;;;;;;;;;6215701;28;20342;-79
2023/06/23 06:12:13;;;;;;;13.05;6.90;;;;;;;;;;6217915;28;20223;-77
2023/06/23 06:15:14;;;;;;;14.95;6.50;;;;;;;;;;6217103;28;20050;-77
2023/06/23 06:18:16;;;;;;;14.40;7.03;;;;;;;;;;6220417;28;20054;-77
2023/06/23 06:21:20;;;;;;;12.90;6.22;;;;;;;;;;6217541;28;20107;-76
2023/06/23 06:24:23;;;;;;;15.07;7.05;;;;;;;;;;6218252;28;20092;-77
2023/06/23 06:27:25;;;;;;;15.05;7.07;;;;;;;;;;6223305;28;20058;-76
2023/06/23 06:30:28;;;;;;;16.05;6.57;;;;;;;;;;6224494;28;20056;-77
2023/06/23 06:33:31;;;;;;;12.63;6.45;;;;;;;;;;6224374;28;20062;-77
2023/06/23 06:36:36;;;;;;;13.70;6.03;;;;;;;;;;6220158;28;20045;-77
2023/06/23 06:39:38;;;;;;;13.23;6.78;;;;;;;;;;6216716;28;20061;-77
2023/06/23 06:42:40;;;;;;;11.60;5.57;;;;;;;;;;6218009;28;20065;-78
2023/06/23 06:45:42;;;;;;;10.10;5.30;;;;;;;;;;6217037;28;20049;-77
2023/06/23 06:48:46;;;;;;;10.13;5.80;;;;;;;;;;6218999;28;20090;-77
2023/06/23 06:51:50;;;;;;;12.18;5.82;;;;;;;;;;6218022;28;20065;-78
2023/06/23 06:54:52;;;;;;;9.70;6.00;;;;;;;;;;6220538;28;20049;-77
2023/06/23 06:57:54;;;;;;;10.07;6.03;;;;;;;;;;6219365;28;20057;-76
2023/06/23 07:00:57;;;;;;;12.38;6.65;;;;;;;;;;6217470;28;20054;-77
2023/06/23 07:03:58;;;;;;;11.95;7.07;;;;;;;;;;6215666;28;20130;-76
2023/06/23 07:07:01;;;;;;;14.50;6.95;;;;;;;;;;6219991;28;20318;-77
2023/06/23 07:10:03;;;;;;;;;;;;;;;;;;6218919;28;20594;-76
2023/06/23 07:13:05;;;;;;;11.73;6.45;;;;;;;;;;6215876;28;19917;-77
2023/06/23 07:16:07;;;;;;;11.43;6.57;;;;;;;;;;6216317;28;20354;-77
2023/06/23 07:19:08;;;;;;;12.00;6.18;;;;;;;;;;6216880;28;20050;-78
2023/06/23 07:22:11;;;;;;;8.57;5.10;;;;;;;;;;6214459;28;20199;-77
2023/06/23 07:25:13;;;;;;;;;;;;;;;;;;6218403;28;20054;-78
2023/06/23 07:28:14;;;;;;;9.90;5.18;;;;;;;;;;6219400;28;19918;-77
2023/06/23 07:31:16;;;;;;;10.75;5.28;;;;;;;;;;6214672;28;20057;-77
2023/06/23 07:34:18;;;;;;;9.43;5.15;;;;;;;;;;6214067;28;20061;-78
2023/06/23 07:37:21;;;;;;;12.52;5.88;;;;;;;;;;6218137;28;20062;-79
2023/06/23 07:40:23;;;;;;;9.88;5.63;;;;;;;;;;6215507;28;20045;-79
2023/06/23 07:43:24;;;;;;;15.73;5.43;;;;;;;;;;6218314;28;20391;-78
2023/06/23 07:46:26;;;;;;;14.57;5.40;;;;;;;;;;6216745;28;20336;-79
2023/06/23 07:49:28;;;;;;;19.02;5.53;;;;;;;;;;6217164;28;20065;-79
2023/06/23 07:52:31;;;;;;;13.05;5.72;;;;;;;;;;6214303;28;20446;-79
2023/06/23 07:55:32;;;;;;;14.68;5.60;;;;;;;;;;6214709;28;20057;-79
2023/06/23 07:58:34;;;;;;;12.60;6.55;;;;;;;;;;6218199;28;20365;-78
2023/06/23 08:01:36;;;;;;;10.63;5.57;;;;;;;;;;6215712;28;20080;-79
2023/06/23 08:04:37;;;;;;;8.40;5.72;;;;;;;;;;6215535;28;20062;-78
2023/06/23 08:07:40;;;;;;;10.88;6.15;;;;;;;;;;6219156;28;20046;-79
2023/06/23 08:10:43;;;;;;;10.43;5.75;;;;;;;;;;6217938;28;20361;-78
2023/06/23 08:13:45;;;;;;;14.73;5.63;;;;;;;;;;6214185;28;20282;-79
2023/06/23 08:16:48;;;;;;;9.50;4.95;;;;;;;;;;6217891;28;20172;-78
2023/06/23 08:19:50;;;;;;;;;;;;;;;;;;6214283;28;21403;-77
2023/06/23 08:22:53;;;;;;;8.13;4.28;;;;;;;;;;6214638;28;19924;-77
2023/06/23 08:25:54;;;;;;;6.60;3.55;;;;;;;;;;6212548;28;20342;-78
2023/06/23 08:28:56;;;;;;;6.27;3.27;;;;;;;;;;6216200;28;20050;-78
2023/06/23 08:31:58;;;;;;;4.27;2.30;;;;;;;;;;6215149;28;20440;-78
2023/06/23 08:35:00;;;;;;;5.27;2.33;;;;;;;;;;6217539;28;20061;-78
2023/06/23 08:38:13;;;;;;;5.05;2.38;;;;;;;;;;6213848;28;20368;-77
2023/06/23 08:41:16;;;;;;;4.53;1.92;;;;;;;;;;6213677;28;20366;-78
2023/06/23 08:44:20;;;;;;;3.47;1.63;;;;;;;;;;6214296;28;21932;-78
2023/06/23 08:47:24;;;;;;;3.97;2.08;;;;;;;;;;6218125;28;20686;-78
2023/06/23 08:50:26;;;;;;;4.07;1.85;;;;;;;;;;6215847;28;20326;-78
2023/06/23 08:53:29;;;;;;;13.50;2.33;;;;;;;;;;6214763;28;20064;-77
2023/06/23 08:56:32;;;;;;;4.75;1.80;;;;;;;;;;6214082;28;20823;-77
2023/06/23 08:59:33;;;;;;;8.80;1.60;;;;;;;;;;6213974;28;20381;-78
2023/06/23 09:02:35;;;;;;;1.83;1.20;;;;;;;;;;6213396;28;20065;-78
2023/06/23 09:05:37;;;;;;;2.22;1.88;;;;;;;;;;6214622;28;20049;-78
2023/06/23 09:08:40;;;;;;;2.85;1.73;;;;;;;;;;6215418;28;20211;-77
2023/06/23 09:11:43;;;;;;;2.97;1.60;;;;;;;;;;6214873;28;20063;-78
2023/06/23 09:14:45;;;;;;;6.80;1.80;;;;;;;;;;6214064;28;20052;-78
2023/06/23 09:17:48;;;;;;;7.22;1.50;;;;;;;;;;6215851;28;20054;-78
2023/06/23 09:20:52;;;;;;;7.25;1.67;;;;;;;;;;6213624;28;20054;-77
2023/06/23 09:24:01;;;;;;;2.55;1.38;;;;;;;;;;6215141;28;20046;-78
2023/06/23 09:27:03;;;;;;;3.92;1.20;;;;;;;;;;6216419;28;20322;-77
2023/06/23 09:30:08;;;;;;;4.88;1.38;;;;;;;;;;6213154;28;20054;-77
2023/06/23 09:33:11;;;;;;;15.68;1.30;;;;;;;;;;6214012;28;20125;-78
2023/06/23 09:36:13;;;;;;;7.75;1.80;;;;;;;;;;6215418;28;20084;-78
2023/06/23 09:39:16;;;;;;;4.30;1.10;;;;;;;;;;6221765;28;20053;-78
2023/06/23 09:42:19;;;;;;;3.30;1.10;;;;;;;;;;6218317;28;20600;-79
2023/06/23 09:45:23;;;;;;;8.27;1.65;;;;;;;;;;6220711;28;20053;-78
2023/06/23 09:48:29;;;;;;;8.63;1.40;;;;;;;;;;6218668;28;20266;-78
2023/06/23 09:51:31;;;;;;;7.07;1.30;;;;;;;;;;6217206;28;20062;-78
2023/06/23 09:54:41;;;;;;;;;;;;;;;;;;6219118;28;20360;-76
2023/06/23 09:57:57;;;;;;;3.28;1.20;;;;;;;;;;6219174;28;19926;-78
2023/06/23 10:01:02;;;;;;;2.35;1.30;;;;;;;;;;6219526;28;20053;-78
2023/06/23 10:04:05;;;;;;;2.05;1.10;;;;;;;;;;6222450;28;20122;-77
2023/06/23 10:07:29;;;;;;;2.35;1.02;;;;;;;;;;6220850;28;20065;-77
2023/06/23 10:10:43;;;;;;;6.40;1.20;;;;;;;;;;6205973;28;20092;-78
2023/06/23 10:13:45;;;;;;;4.55;1.20;;;;;;;;;;6222912;28;20058;-77
2023/06/23 10:16:49;;;;;;;3.33;1.40;;;;;;;;;;6224142;28;20427;-78
2023/06/23 10:19:51;;;;;;;1.83;1.00;;;;;;;;;;6224332;28;20077;-77
2023/06/23 10:22:58;;;;;;;3.10;1.52;;;;;;;;;;6227657;28;20220;-77
2023/06/23 10:26:02;;;;;;;3.10;1.20;;;;;;;;;;6222594;28;20061;-77
2023/06/23 10:29:07;;;;;;;6.45;1.50;;;;;;;;;;6228418;28;20058;-78
2023/06/23 10:32:11;;;;;;;4.47;1.40;;;;;;;;;;6221802;28;20166;-78
2023/06/23 10:35:13;;;;;;;1.35;1.20;;;;;;;;;;6220200;28;20053;-78
2023/06/23 10:38:18;;;;;;;4.13;1.65;;;;;;;;;;6222128;28;20083;-76
2023/06/23 10:41:22;;;;;;;8.85;5.18;;;;;;;;;;6220710;28;20050;-75
2023/06/23 10:44:23;;;;;;;5.38;4.28;;;;;;;;;;6216755;28;20121;-75
2023/06/23 10:47:25;;;;;;;13.82;12.35;;;;;;;;;;6221006;28;20117;-76
2023/06/23 10:50:29;;;;;;;9.60;7.70;;;;;;;;;;6215192;28;20262;-76
2023/06/23 10:53:32;;;;;;;4.45;3.50;;;;;;;;;;6219107;28;20113;-75
2023/06/23 10:56:48;;;;;;;9.32;8.38;;;;;;;;;;6210473;28;20096;-79
2023/06/23 11:00:08;;;;;;;3.38;2.20;;;;;;;;;;6217066;28;20062;-77
2023/06/23 11:03:49;;;;;;;3.13;1.60;;;;;;;;;;6206811;28;20341;-78
2023/06/23 11:07:03;;;;;;;4.13;1.63;;;;;;;;;;6192895;28;20050;-78
2023/06/23 11:10:07;;;;;;;2.50;1.75;;;;;;;;;;6214571;28;20065;-78
2023/06/23 11:13:14;;;;;;;4.15;1.70;;;;;;;;;;6218048;28;20058;-78
2023/06/23 11:16:17;;;;;;;1.95;1.70;;;;;;;;;;6215814;28;20157;-77
2023/06/23 11:19:28;;;;;;;4.43;1.88;;;;;;;;;;6202385;28;20101;-78
2023/06/23 11:22:30;;;;;;;3.72;1.88;;;;;;;;;;6219429;28;20062;-78
2023/06/23 11:25:33;;;;;;;2.75;1.92;;;;;;;;;;6213965;28;20408;-78
2023/06/23 11:28:37;;;;;;;5.47;2.10;;;;;;;;;;6219033;28;20050;-78
2023/06/23 11:32:07;;;;;;;3.85;1.80;;;;;;;;;;6216737;28;20061;-78
2023/06/23 11:35:13;;;;;;;5.22;2.00;;;;;;;;;;6216813;28;20236;-78
2023/06/23 11:38:21;;;;;;;2.38;2.03;;;;;;;;;;6207100;28;20053;-78
2023/06/23 11:41:25;;;;;;;4.43;2.33;;;;;;;;;;6215972;28;20058;-77
2023/06/23 11:44:28;;;;;;;4.30;2.15;;;;;;;;;;6214374;28;20054;-77
2023/06/23 11:47:30;;;;;;;4.43;2.22;;;;;;;;;;6219625;28;20065;-77
2023/06/23 11:50:38;;;;;;;7.18;2.90;;;;;;;;;;6214786;28;20291;-78
2023/06/23 11:53:41;;;;;;;16.73;4.30;;;;;;;;;;6214555;28;20062;-78
2023/06/23 11:56:43;;;;;;;5.93;2.40;;;;;;;;;;6218115;28;20046;-77
2023/06/23 11:59:46;;;;;;;2.88;2.28;;;;;;;;;;6216428;28;20051;-76
2023/06/23 12:02:50;;;;;;;2.40;2.20;;;;;;;;;;6215984;28;20077;-77
2023/06/23 12:05:52;;;;;;;5.10;2.85;;;;;;;;;;6214778;28;20117;-77
2023/06/23 12:08:54;;;;;;;4.65;2.83;;;;;;;;;;6217311;28;20092;-78
2023/06/23 12:11:56;;;;;;;6.18;2.47;;;;;;;;;;6216835;28;20388;-77
2023/06/23 12:15:00;;;;;;;6.60;2.25;;;;;;;;;;6219111;28;20234;-77
2023/06/23 12:18:02;;;;;;;3.10;2.10;;;;;;;;;;6218292;28;20077;-77
2023/06/23 12:21:04;;;;;;;3.03;2.10;;;;;;;;;;6197287;28;20049;-78
2023/06/23 12:24:05;;;;;;;3.15;2.17;;;;;;;;;;6214805;28;20065;-78
2023/06/23 12:27:09;;;;;;;3.45;2.08;;;;;;;;;;6216994;28;20337;-77
2023/06/23 12:30:19;;;;;;;3.47;2.00;;;;;;;;;;6214074;28;20472;-77
2023/06/23 12:33:27;;;;;;;2.43;2.23;;;;;;;;;;6217689;28;20067;-77
2023/06/23 12:36:29;;;;;;;4.70;2.38;;;;;;;;;;6221936;28;20045;-77
2023/06/23 12:39:33;;;;;;;5.18;2.67;;;;;;;;;;6220301;28;20057;-78
2023/06/23 12:42:35;;;;;;;3.45;2.80;;;;;;;;;;6221703;28;20057;-78
2023/06/23 12:45:38;;;;;;;5.28;2.70;;;;;;;;;;6213884;28;20054;-78
2023/06/23 12:48:40;;;;;;;2.90;2.20;;;;;;;;;;6221220;28;20269;-78
2023/06/23 12:51:42;;;;;;;3.85;2.80;;;;;;;;;;6211012;28;20058;-78
2023/06/23 12:54:43;;;;;;;6.68;2.90;;;;;;;;;;6220635;28;20114;-78
2023/06/23 12:57:45;;;;;;;4.05;2.60;;;;;;;;;;6218528;28;20064;-77
2023/06/23 13:00:48;;;;;;;5.75;2.90;;;;;;;;;;6220256;28;20050;-77
2023/06/23 13:03:50;;;;;;;5.53;2.65;;;;;;;;;;6218365;28;20246;-76
2023/06/23 13:06:55;;;;;;;3.03;2.50;;;;;;;;;;6210168;28;20117;-79
2023/06/23 13:09:56;;;;;;;6.18;2.60;;;;;;;;;;6219400;28;20046;-78
2023/06/23 13:12:58;;;;;;;2.95;2.40;;;;;;;;;;6225607;28;20057;-78
2023/06/23 13:16:01;;;;;;;3.38;2.33;;;;;;;;;;6223098;28;20069;-78
2023/06/23 13:19:04;;;;;;;4.95;2.42;;;;;;;;;;6222655;28;20058;-77
2023/06/23 13:22:06;;;;;;;3.63;2.13;;;;;;;;;;6222179;28;20125;-78
2023/06/23 13:25:09;;;;;;;3.15;2.20;;;;;;;;;;6222198;28;20084;-78
2023/06/23 13:28:11;;;;;;;83.38;75.75;;;;;;;;;;6222166;28;20068;-78
2023/06/23 13:31:14;;;;;;;15.15;13.55;;;;;;;;;;6222505;28;20066;-78
2023/06/23 13:34:16;;;;;;;2.72;2.28;;;;;;;;;;6222902;28;20069;-77
2023/06/23 13:37:18;;;;;;;5.22;2.35;;;;;;;;;;6224646;28;20084;-77
2023/06/23 13:40:26;;;;;;;4.80;2.05;;;;;;;;;;6226772;28;20252;-77
2023/06/23 13:43:27;;;;;;;2.50;2.08;;;;;;;;;;6224030;28;20065;-77
2023/06/23 13:46:30;;;;;;;7.55;2.20;;;;;;;;;;6224186;28;20057;-77
2023/06/23 13:49:32;;;;;;;6.35;2.15;;;;;;;;;;6223419;28;20360;-77
2023/06/23 13:52:34;;;;;;;5.93;2.10;;;;;;;;;;6221161;28;20058;-77
2023/06/23 13:55:39;;;;;;;3.47;2.53;;;;;;;;;;6212115;28;20406;-77
2023/06/23 13:58:58;;;;;;;4.22;2.13;;;;;;;;;;6221237;28;20058;-77
2023/06/23 14:02:02;;;;;;;2.30;2.10;;;;;;;;;;6209046;28;20046;-76
2023/06/23 14:05:04;;;;;;;8.30;2.50;;;;;;;;;;6222184;28;20058;-77
2023/06/23 14:08:06;;;;;;;7.22;2.45;;;;;;;;;;6224343;28;20270;-78
2023/06/23 14:11:08;;;;;;;5.18;2.60;;;;;;;;;;6220986;28;20058;-78
2023/06/23 14:14:10;;;;;;;8.48;2.85;;;;;;;;;;6226702;28;20089;-77
2023/06/23 14:17:14;;;;;;;6.07;2.65;;;;;;;;;;6222777;28;20057;-77
2023/06/23 14:20:15;;;;;;;3.45;2.63;;;;;;;;;;6222399;28;20109;-77
2023/06/23 14:23:17;;;;;;;5.03;2.50;;;;;;;;;;6221047;28;20118;-77
2023/06/23 14:26:19;;;;;;;5.38;3.00;;;;;;;;;;6219615;28;20058;-77
2023/06/23 14:29:21;;;;;;;3.55;3.08;;;;;;;;;;6219605;28;20061;-77
2023/06/23 14:32:24;;;;;;;;;;;;;;;;;;6216958;28;20056;-78
2023/06/23 14:35:26;;;;;;;3.67;3.00;;;;;;;;;;6212170;28;19926;-78
2023/06/23 14:38:28;;;;;;;8.57;3.33;;;;;;;;;;6216857;28;20054;-78
2023/06/23 14:41:30;;;;;;;;;;;;;;;;;;6217964;28;20058;-78
2023/06/23 14:44:37;;;;;;;7.20;3.78;;;;;;;;;;6216962;28;19925;-78
2023/06/23 14:48:08;;;;;;;6.35;3.53;;;;;;;;;;6218527;28;20107;-77
2023/06/23 14:51:10;;;;;;;9.07;4.20;;;;;;;;;;6212825;28;20077;-78
2023/06/23 14:54:12;;;;;;;6.30;4.10;;;;;;;;;;6217865;28;20237;-77
2023/06/23 14:57:14;;;;;;;8.30;4.28;;;;;;;;;;6221066;28;20054;-77
2023/06/23 15:00:28;;;;;;;;;;;;;;;;;;6221590;28;20045;-77
2023/06/23 15:03:34;;;;;;;7.32;4.10;;;;;;;;;;6221217;28;19925;-77
2023/06/23 15:06:38;;;;;;;6.97;4.38;;;;;;;;;;6216920;28;20046;-78
2023/06/23 15:09:43;;;;;;;7.25;4.82;;;;;;;;;;6219691;28;20130;-79
2023/06/23 15:13:05;;;;;;;7.25;4.60;;;;;;;;;;6216843;28;20105;-78
2023/06/23 15:19:41;;;;;;;5.95;4.43;;;;;;;;;;6186228;28;20206;-78
2023/06/23 15:22:56;;;;;;;7.57;5.50;;;;;;;;;;6201222;28;20061;-78
2023/06/23 15:26:11;;;;;;;;;;;;;;;;;;;;;
2023/06/23 15:29:14;;;;;;;9.77;5.43;;;;;;;;;;6206702;28;20092;-76
2023/06/23 15:32:21;;;;;;;;;;;;;;;;;;6217727;28;20091;-77
2023/06/23 15:35:31;;;;;;;9.60;5.78;;;;;;;;;;6215699;28;19926;-76
2023/06/23 15:42:20;;;;;;;9.88;5.80;;;;;;;;;;6192785;28;20081;-77
2023/06/23 15:45:22;;;;;;;13.48;5.55;;;;;;;;;;6216167;28;20572;-76
2023/06/23 15:48:30;;;;;;;13.45;6.10;;;;;;;;;;6215084;28;20053;-76
2023/06/23 15:51:34;;;;;;;7.60;5.78;;;;;;;;;;6213877;28;20058;-76
2023/06/23 15:54:37;;;;;;;11.98;5.72;;;;;;;;;;6216364;28;20278;-76
2023/06/23 15:57:41;;;;;;;7.10;6.05;;;;;;;;;;6217725;28;20313;-77
2023/06/23 16:00:43;;;;;;;9.07;5.90;;;;;;;;;;6216922;28;20049;-76
2023/06/23 16:03:45;;;;;;;10.98;6.53;;;;;;;;;;6215203;28;20062;-77
2023/06/23 16:06:49;;;;;;;14.10;7.00;;;;;;;;;;6205360;28;20038;-78
2023/06/23 16:09:50;;;;;;;13.07;6.95;;;;;;;;;;6197754;28;20054;-76
2023/06/23 16:12:55;;;;;;;7.55;6.35;;;;;;;;;;6201258;28;22009;-79
2023/06/23 16:16:00;;;;;;;11.48;6.60;;;;;;;;;;6216090;28;20057;-77
2023/06/23 16:19:02;;;;;;;7.95;5.93;;;;;;;;;;6215506;28;20045;-77
2023/06/23 16:22:06;;;;;;;14.93;6.60;;;;;;;;;;6215268;28;20042;-77
2023/06/23 16:25:10;;;;;;;8.32;5.95;;;;;;;;;;6213223;28;20270;-78
2023/06/23 16:28:12;;;;;;;10.73;6.78;;;;;;;;;;6219413;28;20064;-77
2023/06/23 16:31:13;;;;;;;10.82;6.82;;;;;;;;;;6215034;28;20120;-76
2023/06/23 16:34:16;;;;;;;12.18;6.80;;;;;;;;;;6213883;28;20073;-77
2023/06/23 16:38:03;;;;;;;10.57;6.78;;;;;;;;;;6217189;28;20156;-78
2023/06/23 16:41:35;;;;;;;25.00;7.35;;;;;;;;;;6215116;28;20117;-77
2023/06/23 16:48:10;;;;;;;11.30;6.93;;;;;;;;;;6200131;28;20169;-78
2023/06/23 16:51:12;;;;;;;9.60;6.20;;;;;;;;;;6201329;28;20156;-77
2023/06/23 16:54:14;;;;;;;12.60;7.15;;;;;;;;;;6206006;28;20318;-77
2023/06/23 16:57:16;;;;;;;11.90;7.00;;;;;;;;;;6216449;28;20092;-77
2023/06/23 17:00:52;;;;;;;16.92;6.53;;;;;;;;;;6205039;28;20046;-77
2023/06/23 17:04:03;;;;;;;13.80;6.78;;;;;;;;;;6213941;28;20137;-77
2023/06/23 17:07:06;;;;;;;8.77;6.63;;;;;;;;;;6217701;28;20318;-76
2023/06/23 17:13:41;;;;;;;7.97;6.20;;;;;;;;;;6145482;28;20060;-77
2023/06/23 17:16:48;;;;;;;12.48;6.38;;;;;;;;;;6135474;28;20788;-77
2023/06/23 17:19:50;;;;;;;13.07;6.40;;;;;;;;;;6131491;28;20052;-76
2023/06/23 17:22:52;;;;;;;10.55;6.45;;;;;;;;;;6144298;28;20074;-77
2023/06/23 17:26:03;;;;;;;10.35;6.40;;;;;;;;;;6144406;28;20046;-77
2023/06/23 17:29:05;;;;;;;16.35;6.72;;;;;;;;;;6143630;28;20055;-77
2023/06/23 17:32:42;;;;;;;9.77;6.27;;;;;;;;;;6133511;28;20055;-77
2023/06/23 17:35:44;;;;;;;10.38;6.32;;;;;;;;;;6142049;28;20059;-76
2023/06/23 17:38:52;;;;;;;10.18;6.18;;;;;;;;;;6143313;28;20118;-77
2023/06/23 17:41:57;;;;;;;8.50;6.35;;;;;;;;;;6133429;28;20056;-77
2023/06/23 17:45:01;;;;;;;13.27;6.95;;;;;;;;;;6141319;28;20054;-77
2023/06/23 17:48:23;;;;;;;11.90;6.43;;;;;;;;;;6140547;28;20052;-76
2023/06/23 17:51:28;;;;;;;10.80;6.07;;;;;;;;;;6187509;28;20153;-76
2023/06/23 17:54:30;;;;;;;15.05;6.57;;;;;;;;;;6208301;28;20062;-77
2023/06/23 17:57:36;;;;;;;15.90;6.97;;;;;;;;;;6217942;28;20054;-77
2023/06/23 18:00:38;;;;;;;13.90;6.50;;;;;;;;;;6220297;28;20058;-74
2023/06/23 18:03:44;;;;;;;15.60;6.57;;;;;;;;;;6217370;28;20060;-76
2023/06/23 18:07:13;;;;;;;9.75;6.72;;;;;;;;;;6220679;28;20057;-77
2023/06/23 18:10:43;;;;;;;7.50;5.90;;;;;;;;;;6194575;28;20040;-76
2023/06/23 18:17:58;;;;;;;17.33;7.35;;;;;;;;;;6222722;28;20164;-76
2023/06/23 18:21:02;;;;;;;19.33;6.55;;;;;;;;;;6154710;28;20047;-76
2023/06/23 18:27:48;;;;;;;11.38;6.22;;;;;;;;;;6149781;28;20543;-76
2023/06/23 18:30:57;;;;;;;10.27;5.70;;;;;;;;;;6146535;28;20073;-78
2023/06/23 18:34:08;;;;;;;12.05;6.18;;;;;;;;;;6157194;28;20109;-76
2023/06/23 18:37:12;;;;;;;11.07;5.45;;;;;;;;;;6150179;28;20058;-77
2023/06/23 18:40:20;;;;;;;8.95;5.68;;;;;;;;;;6151050;28;20126;-75
2023/06/23 18:43:27;;;;;;;11.55;5.75;;;;;;;;;;6147092;28;20272;-74
2023/06/23 18:46:45;;;;;;;9.82;5.55;;;;;;;;;;6146711;28;20047;-76